Tucumcari Municipal Airport
KTCC : now visible

Airfield :











YOU CAN JOIN US ON...

 
LOGIN :

Register | Disclaimer

   EN    FR    IT 

 









Legend :    VFR   Marginal VFR   IFR   Intensive IFR   Very Intensive IFR
Visi :
Ceiling :
>= 8 km
>= 3000ft
5 to 8 km
1000 to 3000 ft
1500m to 5 km
500 to 1000 ft
800 to 1500m
200 to 500 ft
< 800m
< 200 ft
Symbols :   Thunderstorms  Fog  Heavy snow  Heavy precipitations  Wind > 20 kt






- Airport Elevation : 4065 ft


KTCC - Tucumcari Municipal

CURRENT METAR :
  • 310753Z AUTO 20012G19KT 10SM CLR 21/09 A3016 RMK AO2 SLP143 T02060094

EXPIRED METARs :
  • 310653Z AUTO 18012KT 10SM CLR 22/08 A3016 RMK AO2 SLP142 T02220083 403610189
  • 310553Z AUTO 17014G21KT 10SM CLR 23/07 A3015 RMK AO2 SLP140 T02330072 10339 20233 51021

TAF KTCC
Valid from the 31 at 06:00 until the 01 at 06:00 UTC


310520Z 3106/0106 19011KT P6SM FEW250
TEMPO 3106/3108 19011G21KT
FM311600 19011G21KT P6SM SCT200
FM010400 18011KT P6SM SCT200
KZAB FIR / North America



MET'MAP, your aeronautical weather chart ! - Copyright ORBIFLY December 2007 - Disclaimer

ORBIFLY MET'MAP TEAM :

Programming & Development : Alexandra Zaïnal
Concept & original design : Baudouin d'Aumeries
Assistance for programming : Marc-Olivier Méhu
Technical & hardware support : Manuel Goepfert

Contact : metmap@orbifly.com




SOURCES & CREDITS :

   NOAA       Earth
Advisory